Canyon Lake, Texas
Current Conditions -  °F | °C
As of 6:51 AM on Thursday 30 Oct 2014 (Local Time) from KBAZ Reporting Station
Clear Clear  
Wind Chill: 64°   Ceiling: Unl
Heat Index: 64°   Visibility: 7mi
Dew Point: 60°   Wind: 0mph
Humidity: 87%   Direction: NA
Pressure: 30.1"   Gusts: NA
Location:  29.84°N, 98.27°W
Report Text: KBAZ 301151Z 00000KT 7SM CLR 18/16 A3010 RMK AO2 SLP186 T01780156 10194 20178 53002
Loading
Personal Weather Stations






























Interactive Weather Map
Tropical Storm Tracking
New forecast layout! Learn more

10-Day Weather Forecast

Advertisements
Track Severe Weather on mobile